Terminal Aerodrome Forecast
Issued by NWS North Platte, NE

Home | Current Version | Previous Version | Graphics & Text | Print | Product List | Glossary On
Versions: 1 2 3 4 5 6 7 8 9 10 11 12 13 14 15 16 17 18 19 20 21
000
FTUS43 KLBF 281700
TAFVTN
TAF
KVTN 281728Z 2818/2918 36008KT P6SM BKN020 OVC050
      TEMPO 2818/2822 3SM -TSRA BKN020CB
     FM290000 VRB06KT P6SM OVC050
     FM290200 VRB06KT P6SM BKN250
     FM291200 32008KT P6SM SCT100=

USA.gov is the U.S. government's official web portal to all federal, state and local government web resources and services.